sensor_id;sensor_type;location;lat;lon;timestamp;temperature;humidity
29775;DHT22;16676;51.202;6.774;2023-11-21T00:02:52;19.80;82.30
29775;DHT22;16676;51.202;6.774;2023-11-21T00:06:54;19.80;82.20
29775;DHT22;16676;51.202;6.774;2023-11-21T00:10:57;19.80;82.20
29775;DHT22;16676;51.202;6.774;2023-11-21T00:15:01;19.80;82.20
29775;DHT22;16676;51.202;6.774;2023-11-21T00:19:03;19.80;82.20
29775;DHT22;16676;51.202;6.774;2023-11-21T00:23:05;19.80;82.10
29775;DHT22;16676;51.202;6.774;2023-11-21T00:27:09;19.80;82.30
29775;DHT22;16676;51.202;6.774;2023-11-21T00:31:10;19.70;82.10
29775;DHT22;16676;51.202;6.774;2023-11-21T00:35:12;19.80;82.10
29775;DHT22;16676;51.202;6.774;2023-11-21T00:39:14;19.70;82.10
29775;DHT22;16676;51.202;6.774;2023-11-21T00:43:18;19.70;82.30
29775;DHT22;16676;51.202;6.774;2023-11-21T00:47:20;19.70;82.30
29775;DHT22;16676;51.202;6.774;2023-11-21T00:51:23;19.70;82.30
29775;DHT22;16676;51.202;6.774;2023-11-21T00:55:25;19.70;82.30
29775;DHT22;16676;51.202;6.774;2023-11-21T00:59:30;19.60;82.30
29775;DHT22;16676;51.202;6.774;2023-11-21T01:03:32;19.60;82.30
29775;DHT22;16676;51.202;6.774;2023-11-21T01:07:34;19.60;82.20
29775;DHT22;16676;51.202;6.774;2023-11-21T01:11:37;19.60;82.30
29775;DHT22;16676;51.202;6.774;2023-11-21T01:15:41;19.60;82.30
29775;DHT22;16676;51.202;6.774;2023-11-21T01:19:43;19.60;82.40
29775;DHT22;16676;51.202;6.774;2023-11-21T01:23:45;19.60;82.40
29775;DHT22;16676;51.202;6.774;2023-11-21T01:27:48;19.60;82.40
29775;DHT22;16676;51.202;6.774;2023-11-21T01:31:51;19.60;82.40
29775;DHT22;16676;51.202;6.774;2023-11-21T01:35:53;19.60;82.40
29775;DHT22;16676;51.202;6.774;2023-11-21T01:39:56;19.60;82.50
29775;DHT22;16676;51.202;6.774;2023-11-21T01:43:58;19.60;82.40
29775;DHT22;16676;51.202;6.774;2023-11-21T01:48:02;19.50;82.30
29775;DHT22;16676;51.202;6.774;2023-11-21T01:52:07;19.60;82.40
29775;DHT22;16676;51.202;6.774;2023-11-21T01:56:11;19.50;82.40
29775;DHT22;16676;51.202;6.774;2023-11-21T02:00:14;19.50;83.10
29775;DHT22;16676;51.202;6.774;2023-11-21T02:04:18;19.50;82.40
29775;DHT22;16676;51.202;6.774;2023-11-21T02:08:21;19.50;82.40
29775;DHT22;16676;51.202;6.774;2023-11-21T02:12:23;19.40;82.50
29775;DHT22;16676;51.202;6.774;2023-11-21T02:16:27;19.50;82.50
29775;DHT22;16676;51.202;6.774;2023-11-21T02:20:33;19.40;82.60
29775;DHT22;16676;51.202;6.774;2023-11-21T02:24:41;19.40;82.70
29775;DHT22;16676;51.202;6.774;2023-11-21T02:28:44;19.30;82.80
29775;DHT22;16676;51.202;6.774;2023-11-21T02:32:45;19.40;82.70
29775;DHT22;16676;51.202;6.774;2023-11-21T02:36:48;19.20;83.20
29775;DHT22;16676;51.202;6.774;2023-11-21T02:40:53;19.20;83.50
29775;DHT22;16676;51.202;6.774;2023-11-21T02:44:55;19.20;83.70
29775;DHT22;16676;51.202;6.774;2023-11-21T02:48:57;19.10;83.90
29775;DHT22;16676;51.202;6.774;2023-11-21T02:52:59;19.20;83.30
29775;DHT22;16676;51.202;6.774;2023-11-21T02:57:04;19.10;83.50
29775;DHT22;16676;51.202;6.774;2023-11-21T03:01:06;19.10;83.60
29775;DHT22;16676;51.202;6.774;2023-11-21T03:05:08;19.20;83.40
29775;DHT22;16676;51.202;6.774;2023-11-21T03:09:11;19.20;83.50
29775;DHT22;16676;51.202;6.774;2023-11-21T03:13:15;19.20;83.50
29775;DHT22;16676;51.202;6.774;2023-11-21T03:17:17;19.10;83.30
29775;DHT22;16676;51.202;6.774;2023-11-21T03:21:18;19.10;83.50
29775;DHT22;16676;51.202;6.774;2023-11-21T03:25:20;19.00;83.40
29775;DHT22;16676;51.202;6.774;2023-11-21T03:29:26;19.10;83.60
29775;DHT22;16676;51.202;6.774;2023-11-21T03:33:28;19.00;83.40
29775;DHT22;16676;51.202;6.774;2023-11-21T03:37:30;19.10;83.40
29775;DHT22;16676;51.202;6.774;2023-11-21T03:41:32;19.10;83.40
29775;DHT22;16676;51.202;6.774;2023-11-21T03:45:37;19.10;83.20
29775;DHT22;16676;51.202;6.774;2023-11-21T03:49:41;19.00;83.10
29775;DHT22;16676;51.202;6.774;2023-11-21T03:53:43;19.00;83.40
29775;DHT22;16676;51.202;6.774;2023-11-21T03:57:45;19.00;83.40
29775;DHT22;16676;51.202;6.774;2023-11-21T04:01:48;19.00;83.30
29775;DHT22;16676;51.202;6.774;2023-11-21T04:05:50;19.10;83.40
29775;DHT22;16676;51.202;6.774;2023-11-21T04:09:52;19.10;83.10
29775;DHT22;16676;51.202;6.774;2023-11-21T04:13:54;19.00;83.20
29775;DHT22;16676;51.202;6.774;2023-11-21T04:17:57;19.00;83.30
29775;DHT22;16676;51.202;6.774;2023-11-21T04:21:59;19.00;83.10
29775;DHT22;16676;51.202;6.774;2023-11-21T04:26:01;19.00;83.10
29775;DHT22;16676;51.202;6.774;2023-11-21T04:30:04;19.00;83.20
29775;DHT22;16676;51.202;6.774;2023-11-21T04:34:08;19.00;83.10
29775;DHT22;16676;51.202;6.774;2023-11-21T04:38:10;19.10;83.00
29775;DHT22;16676;51.202;6.774;2023-11-21T04:42:12;19.10;82.90
29775;DHT22;16676;51.202;6.774;2023-11-21T04:46:14;19.00;82.90
29775;DHT22;16676;51.202;6.774;2023-11-21T04:50:17;19.00;83.00
29775;DHT22;16676;51.202;6.774;2023-11-21T04:54:19;19.00;82.80
29775;DHT22;16676;51.202;6.774;2023-11-21T04:58:22;19.10;82.90
29775;DHT22;16676;51.202;6.774;2023-11-21T05:02:24;19.00;82.80
29775;DHT22;16676;51.202;6.774;2023-11-21T05:06:27;19.00;82.80
29775;DHT22;16676;51.202;6.774;2023-11-21T05:10:29;19.00;83.10
29775;DHT22;16676;51.202;6.774;2023-11-21T05:14:31;19.00;83.30
29775;DHT22;16676;51.202;6.774;2023-11-21T05:18:33;18.90;83.20
29775;DHT22;16676;51.202;6.774;2023-11-21T05:22:36;18.90;83.40
29775;DHT22;16676;51.202;6.774;2023-11-21T05:26:38;18.90;83.70
29775;DHT22;16676;51.202;6.774;2023-11-21T05:30:40;18.90;83.50
29775;DHT22;16676;51.202;6.774;2023-11-21T05:34:42;18.90;83.70
29775;DHT22;16676;51.202;6.774;2023-11-21T05:38:46;18.90;83.70
29775;DHT22;16676;51.202;6.774;2023-11-21T05:42:48;18.90;83.60
29775;DHT22;16676;51.202;6.774;2023-11-21T05:46:52;18.90;83.80
29775;DHT22;16676;51.202;6.774;2023-11-21T05:50:54;18.90;83.60
29775;DHT22;16676;51.202;6.774;2023-11-21T05:54:57;18.90;83.70
29775;DHT22;16676;51.202;6.774;2023-11-21T05:58:59;18.90;83.50
29775;DHT22;16676;51.202;6.774;2023-11-21T06:03:02;18.90;83.80
29775;DHT22;16676;51.202;6.774;2023-11-21T06:07:06;18.80;85.60
29775;DHT22;16676;51.202;6.774;2023-11-21T06:11:10;18.80;86.00
29775;DHT22;16676;51.202;6.774;2023-11-21T06:15:13;18.80;86.30
29775;DHT22;16676;51.202;6.774;2023-11-21T06:19:15;18.70;86.60
29775;DHT22;16676;51.202;6.774;2023-11-21T06:23:17;18.80;86.00
29775;DHT22;16676;51.202;6.774;2023-11-21T06:27:20;18.70;86.60
29775;DHT22;16676;51.202;6.774;2023-11-21T06:31:22;18.70;86.60
29775;DHT22;16676;51.202;6.774;2023-11-21T06:35:24;18.80;86.00
29775;DHT22;16676;51.202;6.774;2023-11-21T06:39:28;18.80;85.40
29775;DHT22;16676;51.202;6.774;2023-11-21T06:43:31;18.70;86.00
29775;DHT22;16676;51.202;6.774;2023-11-21T06:47:33;18.70;86.20
29775;DHT22;16676;51.202;6.774;2023-11-21T06:51:35;18.80;86.10
29775;DHT22;16676;51.202;6.774;2023-11-21T06:55:37;18.80;86.00
29775;DHT22;16676;51.202;6.774;2023-11-21T06:59:41;18.80;85.70
29775;DHT22;16676;51.202;6.774;2023-11-21T07:03:43;18.80;85.90
29775;DHT22;16676;51.202;6.774;2023-11-21T07:07:44;18.70;85.80
29775;DHT22;16676;51.202;6.774;2023-11-21T07:11:46;18.70;86.00
29775;DHT22;16676;51.202;6.774;2023-11-21T07:15:50;18.80;85.40
29775;DHT22;16676;51.202;6.774;2023-11-21T07:19:53;18.80;85.00
29775;DHT22;16676;51.202;6.774;2023-11-21T07:23:55;18.70;84.50
29775;DHT22;16676;51.202;6.774;2023-11-21T07:27:57;18.60;81.30
29775;DHT22;16676;51.202;6.774;2023-11-21T07:32:01;18.40;79.20
29775;DHT22;16676;51.202;6.774;2023-11-21T07:36:03;18.40;78.10
29775;DHT22;16676;51.202;6.774;2023-11-21T07:40:06;18.40;76.90
29775;DHT22;16676;51.202;6.774;2023-11-21T07:44:09;18.40;76.00
29775;DHT22;16676;51.202;6.774;2023-11-21T07:48:12;18.30;76.20
29775;DHT22;16676;51.202;6.774;2023-11-21T07:52:14;18.30;74.70
29775;DHT22;16676;51.202;6.774;2023-11-21T07:56:16;18.20;75.10
29775;DHT22;16676;51.202;6.774;2023-11-21T08:00:19;18.20;74.50
29775;DHT22;16676;51.202;6.774;2023-11-21T08:04:23;18.20;76.50
29775;DHT22;16676;51.202;6.774;2023-11-21T08:08:25;18.30;78.70
29775;DHT22;16676;51.202;6.774;2023-11-21T08:12:28;18.50;79.90
29775;DHT22;16676;51.202;6.774;2023-11-21T08:16:30;18.70;81.00
29775;DHT22;16676;51.202;6.774;2023-11-21T08:20:33;19.00;81.30
29775;DHT22;16676;51.202;6.774;2023-11-21T08:24:39;19.20;81.50
29775;DHT22;16676;51.202;6.774;2023-11-21T08:28:41;19.30;81.00
29775;DHT22;16676;51.202;6.774;2023-11-21T08:32:43;19.50;80.80
29775;DHT22;16676;51.202;6.774;2023-11-21T08:36:46;19.70;80.90
29775;DHT22;16676;51.202;6.774;2023-11-21T08:40:48;19.80;80.50
29775;DHT22;16676;51.202;6.774;2023-11-21T08:44:50;19.90;80.60
29775;DHT22;16676;51.202;6.774;2023-11-21T08:48:52;20.00;80.20
29775;DHT22;16676;51.202;6.774;2023-11-21T08:52:56;20.10;79.70
29775;DHT22;16676;51.202;6.774;2023-11-21T08:56:57;20.10;79.90
29775;DHT22;16676;51.202;6.774;2023-11-21T09:00:59;20.20;80.00
29775;DHT22;16676;51.202;6.774;2023-11-21T09:05:01;20.20;79.90
29775;DHT22;16676;51.202;6.774;2023-11-21T09:09:05;20.30;79.40
29775;DHT22;16676;51.202;6.774;2023-11-21T09:13:09;20.30;79.40
29775;DHT22;16676;51.202;6.774;2023-11-21T09:17:11;20.40;79.30
29775;DHT22;16676;51.202;6.774;2023-11-21T09:21:12;20.40;79.40
29775;DHT22;16676;51.202;6.774;2023-11-21T09:25:16;20.40;79.20
29775;DHT22;16676;51.202;6.774;2023-11-21T09:29:19;20.50;78.90
29775;DHT22;16676;51.202;6.774;2023-11-21T09:33:21;20.50;79.20
29775;DHT22;16676;51.202;6.774;2023-11-21T09:37:25;20.50;78.70
29775;DHT22;16676;51.202;6.774;2023-11-21T09:41:37;20.60;78.80
29775;DHT22;16676;51.202;6.774;2023-11-21T09:45:45;20.60;78.80
29775;DHT22;16676;51.202;6.774;2023-11-21T09:49:48;20.60;78.80
29775;DHT22;16676;51.202;6.774;2023-11-21T09:53:51;20.70;78.90
29775;DHT22;16676;51.202;6.774;2023-11-21T09:57:56;20.60;78.70
29775;DHT22;16676;51.202;6.774;2023-11-21T10:01:58;20.60;78.80
29775;DHT22;16676;51.202;6.774;2023-11-21T10:06:00;20.60;79.00
29775;DHT22;16676;51.202;6.774;2023-11-21T10:10:03;20.60;79.60
29775;DHT22;16676;51.202;6.774;2023-11-21T10:14:08;20.60;79.20
29775;DHT22;16676;51.202;6.774;2023-11-21T10:18:13;20.60;79.30
29775;DHT22;16676;51.202;6.774;2023-11-21T10:22:16;20.60;79.50
29775;DHT22;16676;51.202;6.774;2023-11-21T10:26:18;20.60;79.70
29775;DHT22;16676;51.202;6.774;2023-11-21T10:30:23;20.60;79.80
29775;DHT22;16676;51.202;6.774;2023-11-21T10:34:29;20.60;79.90
29775;DHT22;16676;51.202;6.774;2023-11-21T10:38:35;20.60;80.00
29775;DHT22;16676;51.202;6.774;2023-11-21T10:42:43;20.60;80.20
29775;DHT22;16676;51.202;6.774;2023-11-21T10:46:47;20.50;79.90
29775;DHT22;16676;51.202;6.774;2023-11-21T10:50:51;20.60;80.00
29775;DHT22;16676;51.202;6.774;2023-11-21T10:54:53;20.60;80.30
29775;DHT22;16676;51.202;6.774;2023-11-21T10:58:55;20.60;80.50
29775;DHT22;16676;51.202;6.774;2023-11-21T11:02:59;20.60;80.50
29775;DHT22;16676;51.202;6.774;2023-11-21T11:07:03;20.60;80.50
29775;DHT22;16676;51.202;6.774;2023-11-21T11:11:05;20.50;80.70
29775;DHT22;16676;51.202;6.774;2023-11-21T11:15:08;20.50;80.90
29775;DHT22;16676;51.202;6.774;2023-11-21T11:19:12;20.50;80.90
29775;DHT22;16676;51.202;6.774;2023-11-21T11:23:32;20.50;81.00
29775;DHT22;16676;51.202;6.774;2023-11-21T11:27:48;20.50;81.20
29775;DHT22;16676;51.202;6.774;2023-11-21T11:31:59;20.50;81.20
29775;DHT22;16676;51.202;6.774;2023-11-21T11:36:13;20.50;81.40
29775;DHT22;16676;51.202;6.774;2023-11-21T11:40:18;20.50;81.50
29775;DHT22;16676;51.202;6.774;2023-11-21T11:44:49;20.50;81.70
29775;DHT22;16676;51.202;6.774;2023-11-21T11:49:02;20.50;81.70
29775;DHT22;16676;51.202;6.774;2023-11-21T11:53:15;20.50;81.50
29775;DHT22;16676;51.202;6.774;2023-11-21T11:57:19;20.50;81.60
29775;DHT22;16676;51.202;6.774;2023-11-21T12:01:21;20.60;81.50
29775;DHT22;16676;51.202;6.774;2023-11-21T12:05:24;20.50;81.60
29775;DHT22;16676;51.202;6.774;2023-11-21T12:09:31;20.50;81.70
29775;DHT22;16676;51.202;6.774;2023-11-21T12:13:33;20.60;82.00
29775;DHT22;16676;51.202;6.774;2023-11-21T12:17:35;20.50;81.90
29775;DHT22;16676;51.202;6.774;2023-11-21T12:21:37;20.50;82.00
29775;DHT22;16676;51.202;6.774;2023-11-21T12:25:41;20.50;82.30
29775;DHT22;16676;51.202;6.774;2023-11-21T12:29:42;20.50;82.20
29775;DHT22;16676;51.202;6.774;2023-11-21T12:33:44;20.50;82.50
29775;DHT22;16676;51.202;6.774;2023-11-21T12:37:47;20.50;82.70
29775;DHT22;16676;51.202;6.774;2023-11-21T12:41:51;20.50;83.40
29775;DHT22;16676;51.202;6.774;2023-11-21T12:46:04;20.50;82.70
29775;DHT22;16676;51.202;6.774;2023-11-21T12:50:07;20.50;82.60
29775;DHT22;16676;51.202;6.774;2023-11-21T12:54:14;20.50;82.70
29775;DHT22;16676;51.202;6.774;2023-11-21T12:58:19;20.50;77.90
29775;DHT22;16676;51.202;6.774;2023-11-21T13:02:26;20.40;75.20
29775;DHT22;16676;51.202;6.774;2023-11-21T13:06:28;20.30;74.20
29775;DHT22;16676;51.202;6.774;2023-11-21T13:10:35;20.20;74.90
29775;DHT22;16676;51.202;6.774;2023-11-21T13:14:39;20.10;76.10
29775;DHT22;16676;51.202;6.774;2023-11-21T13:18:41;20.00;77.30
29775;DHT22;16676;51.202;6.774;2023-11-21T13:22:48;20.00;77.50
29775;DHT22;16676;51.202;6.774;2023-11-21T13:26:51;20.00;77.70
29775;DHT22;16676;51.202;6.774;2023-11-21T13:30:54;20.00;78.00
29775;DHT22;16676;51.202;6.774;2023-11-21T13:34:57;20.00;78.30
29775;DHT22;16676;51.202;6.774;2023-11-21T13:39:00;20.00;78.80
29775;DHT22;16676;51.202;6.774;2023-11-21T13:43:08;20.10;79.00
29775;DHT22;16676;51.202;6.774;2023-11-21T13:47:11;20.10;79.10
29775;DHT22;16676;51.202;6.774;2023-11-21T13:51:13;20.10;79.30
29775;DHT22;16676;51.202;6.774;2023-11-21T13:55:17;20.10;79.70
29775;DHT22;16676;51.202;6.774;2023-11-21T13:59:19;20.20;79.70
29775;DHT22;16676;51.202;6.774;2023-11-21T14:03:27;20.20;79.80
29775;DHT22;16676;51.202;6.774;2023-11-21T14:07:40;20.30;79.90
29775;DHT22;16676;51.202;6.774;2023-11-21T14:11:50;20.30;80.00
29775;DHT22;16676;51.202;6.774;2023-11-21T14:15:53;20.30;80.00
29775;DHT22;16676;51.202;6.774;2023-11-21T14:20:00;20.30;80.30
29775;DHT22;16676;51.202;6.774;2023-11-21T14:24:06;20.30;80.40
29775;DHT22;16676;51.202;6.774;2023-11-21T14:28:10;20.30;80.30
29775;DHT22;16676;51.202;6.774;2023-11-21T14:32:12;20.30;80.40
29775;DHT22;16676;51.202;6.774;2023-11-21T14:36:16;20.40;80.60
29775;DHT22;16676;51.202;6.774;2023-11-21T14:40:18;20.40;80.50
29775;DHT22;16676;51.202;6.774;2023-11-21T14:44:25;20.40;80.60
29775;DHT22;16676;51.202;6.774;2023-11-21T14:48:29;20.50;80.70
29775;DHT22;16676;51.202;6.774;2023-11-21T14:52:44;20.50;80.90
29775;DHT22;16676;51.202;6.774;2023-11-21T14:56:56;20.50;80.70
29775;DHT22;16676;51.202;6.774;2023-11-21T15:00:59;20.50;80.90
29775;DHT22;16676;51.202;6.774;2023-11-21T15:05:01;20.50;80.70
29775;DHT22;16676;51.202;6.774;2023-11-21T15:09:05;20.50;81.40
29775;DHT22;16676;51.202;6.774;2023-11-21T15:13:35;20.60;80.70
29775;DHT22;16676;51.202;6.774;2023-11-21T15:17:37;20.60;80.80
29775;DHT22;16676;51.202;6.774;2023-11-21T15:21:44;20.60;81.00
29775;DHT22;16676;51.202;6.774;2023-11-21T15:25:48;20.60;81.00
29775;DHT22;16676;51.202;6.774;2023-11-21T15:29:50;20.60;81.10
29775;DHT22;16676;51.202;6.774;2023-11-21T15:33:52;20.60;81.10
29775;DHT22;16676;51.202;6.774;2023-11-21T15:37:54;20.60;81.20
29775;DHT22;16676;51.202;6.774;2023-11-21T15:41:59;20.70;81.60
29775;DHT22;16676;51.202;6.774;2023-11-21T15:46:02;20.70;81.20
29775;DHT22;16676;51.202;6.774;2023-11-21T15:50:08;20.70;81.30
29775;DHT22;16676;51.202;6.774;2023-11-21T15:54:11;20.70;81.30
29775;DHT22;16676;51.202;6.774;2023-11-21T15:58:14;20.70;81.20
29775;DHT22;16676;51.202;6.774;2023-11-21T16:02:16;20.70;81.30
29775;DHT22;16676;51.202;6.774;2023-11-21T16:06:18;20.70;81.30
29775;DHT22;16676;51.202;6.774;2023-11-21T16:10:20;20.80;81.40
29775;DHT22;16676;51.202;6.774;2023-11-21T16:14:23;20.70;79.30
29775;DHT22;16676;51.202;6.774;2023-11-21T16:18:27;20.40;73.90
29775;DHT22;16676;51.202;6.774;2023-11-21T16:22:29;20.20;73.10
29775;DHT22;16676;51.202;6.774;2023-11-21T16:26:32;20.00;72.20
29775;DHT22;16676;51.202;6.774;2023-11-21T16:30:37;19.80;71.00
29775;DHT22;16676;51.202;6.774;2023-11-21T16:34:39;19.70;71.00
29775;DHT22;16676;51.202;6.774;2023-11-21T16:38:41;19.60;69.20
29775;DHT22;16676;51.202;6.774;2023-11-21T16:42:43;19.50;69.50
29775;DHT22;16676;51.202;6.774;2023-11-21T16:46:47;19.40;69.30
29775;DHT22;16676;51.202;6.774;2023-11-21T16:50:50;19.30;68.20
29775;DHT22;16676;51.202;6.774;2023-11-21T16:54:52;19.30;67.10
29775;DHT22;16676;51.202;6.774;2023-11-21T16:58:54;19.20;68.40
29775;DHT22;16676;51.202;6.774;2023-11-21T17:02:58;19.20;67.50
29775;DHT22;16676;51.202;6.774;2023-11-21T17:07:00;19.10;66.80
29775;DHT22;16676;51.202;6.774;2023-11-21T17:11:03;19.00;66.20
29775;DHT22;16676;51.202;6.774;2023-11-21T17:15:09;19.00;66.00
29775;DHT22;16676;51.202;6.774;2023-11-21T17:19:12;19.00;66.90
29775;DHT22;16676;51.202;6.774;2023-11-21T17:23:14;19.10;68.70
29775;DHT22;16676;51.202;6.774;2023-11-21T17:27:16;19.10;70.00
29775;DHT22;16676;51.202;6.774;2023-11-21T17:31:18;19.10;74.30
29775;DHT22;16676;51.202;6.774;2023-11-21T17:35:22;19.10;77.80
29775;DHT22;16676;51.202;6.774;2023-11-21T17:39:23;19.20;80.50
29775;DHT22;16676;51.202;6.774;2023-11-21T17:43:25;19.30;81.90
29775;DHT22;16676;51.202;6.774;2023-11-21T17:47:27;19.40;84.70
29775;DHT22;16676;51.202;6.774;2023-11-21T17:51:31;19.40;87.80
29775;DHT22;16676;51.202;6.774;2023-11-21T17:55:34;19.40;88.60
29775;DHT22;16676;51.202;6.774;2023-11-21T17:59:37;19.50;89.80
29775;DHT22;16676;51.202;6.774;2023-11-21T18:03:40;19.50;90.70
29775;DHT22;16676;51.202;6.774;2023-11-21T18:07:43;19.50;91.50
29775;DHT22;16676;51.202;6.774;2023-11-21T18:11:45;19.60;91.60
29775;DHT22;16676;51.202;6.774;2023-11-21T18:15:47;19.70;91.20
29775;DHT22;16676;51.202;6.774;2023-11-21T18:19:49;19.80;80.20
29775;DHT22;16676;51.202;6.774;2023-11-21T18:23:56;19.70;78.50
29775;DHT22;16676;51.202;6.774;2023-11-21T18:27:58;19.60;77.70
29775;DHT22;16676;51.202;6.774;2023-11-21T18:32:00;19.60;76.60
29775;DHT22;16676;51.202;6.774;2023-11-21T18:36:06;19.50;76.20
29775;DHT22;16676;51.202;6.774;2023-11-21T18:40:11;19.50;76.00
29775;DHT22;16676;51.202;6.774;2023-11-21T18:44:13;19.40;76.30
29775;DHT22;16676;51.202;6.774;2023-11-21T18:48:15;19.40;75.60
29775;DHT22;16676;51.202;6.774;2023-11-21T18:52:20;19.30;75.80
29775;DHT22;16676;51.202;6.774;2023-11-21T18:56:25;19.20;75.00
29775;DHT22;16676;51.202;6.774;2023-11-21T19:00:30;19.10;71.60
29775;DHT22;16676;51.202;6.774;2023-11-21T19:04:32;18.90;69.10
29775;DHT22;16676;51.202;6.774;2023-11-21T19:08:34;18.80;71.60
29775;DHT22;16676;51.202;6.774;2023-11-21T19:12:37;19.00;75.90
29775;DHT22;16676;51.202;6.774;2023-11-21T19:16:40;19.20;77.50
29775;DHT22;16676;51.202;6.774;2023-11-21T19:20:42;19.30;77.60
29775;DHT22;16676;51.202;6.774;2023-11-21T19:24:44;19.50;78.60
29775;DHT22;16676;51.202;6.774;2023-11-21T19:28:47;19.60;79.20
29775;DHT22;16676;51.202;6.774;2023-11-21T19:32:49;19.60;78.50
29775;DHT22;16676;51.202;6.774;2023-11-21T19:36:51;19.70;79.40
29775;DHT22;16676;51.202;6.774;2023-11-21T19:40:53;19.80;78.80
29775;DHT22;16676;51.202;6.774;2023-11-21T19:44:57;20.00;78.50
29775;DHT22;16676;51.202;6.774;2023-11-21T19:48:59;20.10;78.50
29775;DHT22;16676;51.202;6.774;2023-11-21T19:53:03;20.10;78.50
29775;DHT22;16676;51.202;6.774;2023-11-21T19:57:05;20.10;78.50
29775;DHT22;16676;51.202;6.774;2023-11-21T20:01:10;20.10;78.20
29775;DHT22;16676;51.202;6.774;2023-11-21T20:05:12;20.10;77.80
29775;DHT22;16676;51.202;6.774;2023-11-21T20:09:15;20.10;78.30
29775;DHT22;16676;51.202;6.774;2023-11-21T20:13:17;20.10;78.10
29775;DHT22;16676;51.202;6.774;2023-11-21T20:17:20;20.20;78.20
29775;DHT22;16676;51.202;6.774;2023-11-21T20:21:22;20.20;77.70
29775;DHT22;16676;51.202;6.774;2023-11-21T20:25:27;20.10;78.10
29775;DHT22;16676;51.202;6.774;2023-11-21T20:29:29;20.20;78.60
29775;DHT22;16676;51.202;6.774;2023-11-21T20:33:33;20.20;78.60
29775;DHT22;16676;51.202;6.774;2023-11-21T20:37:35;20.20;78.60
29775;DHT22;16676;51.202;6.774;2023-11-21T20:41:39;20.20;77.10
29775;DHT22;16676;51.202;6.774;2023-11-21T20:45:41;19.90;70.80
29775;DHT22;16676;51.202;6.774;2023-11-21T20:49:45;19.90;71.60
29775;DHT22;16676;51.202;6.774;2023-11-21T20:53:47;19.90;72.00
29775;DHT22;16676;51.202;6.774;2023-11-21T20:57:49;19.90;72.10
29775;DHT22;16676;51.202;6.774;2023-11-21T21:01:50;19.90;73.20
29775;DHT22;16676;51.202;6.774;2023-11-21T21:05:54;20.00;73.10
29775;DHT22;16676;51.202;6.774;2023-11-21T21:09:56;19.90;73.10
29775;DHT22;16676;51.202;6.774;2023-11-21T21:13:59;20.00;73.80
29775;DHT22;16676;51.202;6.774;2023-11-21T21:18:01;19.90;73.60
29775;DHT22;16676;51.202;6.774;2023-11-21T21:22:07;20.00;74.70
29775;DHT22;16676;51.202;6.774;2023-11-21T21:26:09;20.00;74.60
29775;DHT22;16676;51.202;6.774;2023-11-21T21:30:12;19.90;75.00
29775;DHT22;16676;51.202;6.774;2023-11-21T21:34:14;19.90;75.30
29775;DHT22;16676;51.202;6.774;2023-11-21T21:38:18;20.00;74.30
29775;DHT22;16676;51.202;6.774;2023-11-21T21:42:20;19.90;75.80
29775;DHT22;16676;51.202;6.774;2023-11-21T21:46:22;19.90;75.70
29775;DHT22;16676;51.202;6.774;2023-11-21T21:50:24;19.90;75.60
29775;DHT22;16676;51.202;6.774;2023-11-21T21:54:30;19.90;75.60
29775;DHT22;16676;51.202;6.774;2023-11-21T21:58:32;19.90;75.80
29775;DHT22;16676;51.202;6.774;2023-11-21T22:02:35;19.90;74.70
29775;DHT22;16676;51.202;6.774;2023-11-21T22:06:37;19.90;74.50
29775;DHT22;16676;51.202;6.774;2023-11-21T22:10:40;19.90;75.00
29775;DHT22;16676;51.202;6.774;2023-11-21T22:14:42;19.90;74.70
29775;DHT22;16676;51.202;6.774;2023-11-21T22:18:45;19.90;74.30
29775;DHT22;16676;51.202;6.774;2023-11-21T22:22:47;19.90;74.00
29775;DHT22;16676;51.202;6.774;2023-11-21T22:26:50;19.90;74.40
29775;DHT22;16676;51.202;6.774;2023-11-21T22:30:52;19.90;74.50
29775;DHT22;16676;51.202;6.774;2023-11-21T22:34:54;19.90;74.20
29775;DHT22;16676;51.202;6.774;2023-11-21T22:38:57;19.90;74.60
29775;DHT22;16676;51.202;6.774;2023-11-21T22:43:00;19.80;74.30
29775;DHT22;16676;51.202;6.774;2023-11-21T22:47:02;19.80;74.30
29775;DHT22;16676;51.202;6.774;2023-11-21T22:51:04;19.80;74.60
29775;DHT22;16676;51.202;6.774;2023-11-21T22:55:07;19.80;74.40
29775;DHT22;16676;51.202;6.774;2023-11-21T22:59:11;19.70;74.40
29775;DHT22;16676;51.202;6.774;2023-11-21T23:03:13;19.60;74.70
29775;DHT22;16676;51.202;6.774;2023-11-21T23:07:15;19.70;74.80
29775;DHT22;16676;51.202;6.774;2023-11-21T23:11:17;19.70;74.80
29775;DHT22;16676;51.202;6.774;2023-11-21T23:15:20;19.70;75.00
29775;DHT22;16676;51.202;6.774;2023-11-21T23:19:23;19.60;75.00
29775;DHT22;16676;51.202;6.774;2023-11-21T23:23:26;19.70;75.20
29775;DHT22;16676;51.202;6.774;2023-11-21T23:27:28;19.60;75.10
29775;DHT22;16676;51.202;6.774;2023-11-21T23:31:32;19.60;75.10
29775;DHT22;16676;51.202;6.774;2023-11-21T23:35:34;19.60;75.10
29775;DHT22;16676;51.202;6.774;2023-11-21T23:39:36;19.70;75.20
29775;DHT22;16676;51.202;6.774;2023-11-21T23:43:38;19.60;75.20
29775;DHT22;16676;51.202;6.774;2023-11-21T23:47:41;19.60;75.30
29775;DHT22;16676;51.202;6.774;2023-11-21T23:51:43;19.60;75.30
29775;DHT22;16676;51.202;6.774;2023-11-21T23:55:45;19.60;75.60
29775;DHT22;16676;51.202;6.774;2023-11-21T23:59:49;19.60;75.60
